createdAt,value
2019-06-26T00:02:07.058Z,12.80
2019-06-26T00:04:35.788Z,12.78
2019-06-26T00:07:04.617Z,13.10
2019-06-26T00:09:33.325Z,12.47
2019-06-26T00:12:02.104Z,12.70
2019-06-26T00:14:30.823Z,14.03
2019-06-26T00:16:59.581Z,12.10
2019-06-26T00:19:28.235Z,13.13
2019-06-26T00:21:56.980Z,13.03
2019-06-26T00:24:25.691Z,13.17
2019-06-26T00:26:54.384Z,12.57
2019-06-26T00:29:23.073Z,12.53
2019-06-26T00:31:51.781Z,11.95
2019-06-26T00:34:20.491Z,12.43
2019-06-26T00:36:49.257Z,13.08
2019-06-26T00:39:18.035Z,12.93
2019-06-26T00:41:46.779Z,12.30
2019-06-26T00:44:15.519Z,11.80
2019-06-26T00:46:44.341Z,12.80
2019-06-26T00:49:13.137Z,12.67
2019-06-26T00:51:41.877Z,12.77
2019-06-26T00:54:10.687Z,13.03
2019-06-26T00:56:39.351Z,12.70
2019-06-26T00:59:08.017Z,12.20
2019-06-26T01:01:36.799Z,12.33
2019-06-26T01:04:07.192Z,11.23
2019-06-26T01:06:44.974Z,11.83
2019-06-26T01:09:14.855Z,12.63
2019-06-26T01:11:45.750Z,12.43
2019-06-26T01:14:14.542Z,12.97
2019-06-26T01:16:43.247Z,12.93
2019-06-26T01:19:12.041Z,13.07
2019-06-26T01:21:40.731Z,11.83
2019-06-26T01:24:09.497Z,13.13
2019-06-26T01:26:38.137Z,14.07
2019-06-26T01:29:06.845Z,12.50
2019-06-26T01:31:35.678Z,13.67
2019-06-26T01:34:04.469Z,13.50
2019-06-26T01:36:33.195Z,12.97
2019-06-26T01:39:02.046Z,13.07
2019-06-26T01:41:30.815Z,14.63
2019-06-26T01:44:13.586Z,14.00
2019-06-26T01:46:29.914Z,14.50
2019-06-26T01:48:58.699Z,14.37
2019-06-26T01:51:27.572Z,13.90
2019-06-26T01:53:56.285Z,15.67
2019-06-26T01:56:25.004Z,15.47
2019-06-26T01:58:53.725Z,14.53
2019-06-26T02:01:22.457Z,14.67
2019-06-26T02:03:51.145Z,15.13
2019-06-26T02:06:19.927Z,15.37
2019-06-26T02:09:08.089Z,15.10
2019-06-26T02:11:36.889Z,15.53
2019-06-26T02:14:05.771Z,15.23
2019-06-26T02:16:34.546Z,15.40
2019-06-26T02:19:05.043Z,14.90
2019-06-26T02:21:33.705Z,15.90
2019-06-26T02:24:02.679Z,15.80
2019-06-26T02:26:31.379Z,15.03
2019-06-26T02:29:00.123Z,13.90
2019-06-26T02:31:28.806Z,14.03
2019-06-26T02:33:57.517Z,15.33
2019-06-26T02:36:26.345Z,14.63
2019-06-26T02:38:55.120Z,14.13
2019-06-26T02:41:23.991Z,14.50
2019-06-26T02:43:52.738Z,13.77
2019-06-26T02:46:21.523Z,15.57
2019-06-26T02:48:50.309Z,15.20
2019-06-26T02:51:19.045Z,15.80
2019-06-26T02:53:47.702Z,14.40
2019-06-26T02:56:16.633Z,15.53
2019-06-26T02:58:45.320Z,15.30
2019-06-26T03:01:14.058Z,15.17
2019-06-26T03:03:42.853Z,14.83
2019-06-26T03:06:11.608Z,15.77
2019-06-26T03:08:40.345Z,15.03
2019-06-26T03:11:09.162Z,14.97
2019-06-26T03:13:37.830Z,15.10
2019-06-26T03:16:06.469Z,15.27
2019-06-26T03:18:35.927Z,15.10
2019-06-26T03:21:04.609Z,15.77
2019-06-26T03:23:33.288Z,17.17
2019-06-26T03:26:02.085Z,16.97
2019-06-26T03:28:30.797Z,18.23
2019-06-26T03:30:59.620Z,16.93
2019-06-26T03:33:28.485Z,17.40
2019-06-26T03:35:57.205Z,15.87
2019-06-26T03:38:25.857Z,17.63
2019-06-26T03:40:54.592Z,18.63
2019-06-26T03:43:23.421Z,19.27
2019-06-26T03:45:52.139Z,19.00
2019-06-26T03:48:21.278Z,18.33
2019-06-26T03:50:49.943Z,19.63
2019-06-26T03:53:18.587Z,19.43
2019-06-26T03:55:47.310Z,18.70
2019-06-26T03:58:15.989Z,18.07
2019-06-26T04:00:44.960Z,18.83
2019-06-26T04:03:13.663Z,17.57
2019-06-26T04:05:42.334Z,18.47
2019-06-26T04:08:11.081Z,17.97
2019-06-26T04:10:43.070Z,18.23
2019-06-26T04:13:10.193Z,17.43
2019-06-26T04:15:42.509Z,16.37
2019-06-26T04:18:09.867Z,17.60
2019-06-26T04:20:38.591Z,18.70
2019-06-26T04:23:07.261Z,17.30
2019-06-26T04:25:38.055Z,17.50
2019-06-26T04:28:06.573Z,17.37
2019-06-26T04:30:35.412Z,16.30
2019-06-26T04:33:04.345Z,16.73
2019-06-26T04:35:33.060Z,17.67
2019-06-26T04:38:01.729Z,16.73
2019-06-26T04:40:30.446Z,17.93
2019-06-26T04:42:59.121Z,17.70
2019-06-26T04:45:27.901Z,18.63
2019-06-26T04:47:56.619Z,17.27
2019-06-26T04:50:25.428Z,16.70
2019-06-26T04:52:54.166Z,15.40
2019-06-26T04:55:22.928Z,16.75
2019-06-26T04:57:51.631Z,15.70
2019-06-26T05:00:21.874Z,16.20
2019-06-26T05:02:50.852Z,15.95
2019-06-26T05:05:19.844Z,15.28
2019-06-26T05:07:48.601Z,16.48
2019-06-26T05:10:17.549Z,16.00
2019-06-26T05:12:46.347Z,15.28
2019-06-26T05:15:16.365Z,14.43
2019-06-26T05:17:45.084Z,14.53
2019-06-26T05:20:15.795Z,14.60
2019-06-26T05:22:44.533Z,16.02
2019-06-26T05:25:13.411Z,17.17
2019-06-26T05:27:42.089Z,18.00
2019-06-26T05:30:12.316Z,16.75
2019-06-26T05:32:41.037Z,15.48
2019-06-26T05:35:10.228Z,15.23
2019-06-26T05:37:38.985Z,14.10
2019-06-26T05:40:12.191Z,14.20
2019-06-26T05:42:41.008Z,13.75
2019-06-26T05:45:10.911Z,13.85
2019-06-26T05:47:39.612Z,13.95
2019-06-26T05:50:09.338Z,14.50
2019-06-26T05:52:41.295Z,14.45
2019-06-26T05:55:08.897Z,14.05
2019-06-26T05:57:40.853Z,13.13
2019-06-26T06:00:09.978Z,13.35
2019-06-26T06:02:38.810Z,12.95
2019-06-26T06:05:10.960Z,13.22
2019-06-26T06:07:39.690Z,13.45
2019-06-26T06:10:09.444Z,13.85
2019-06-26T06:12:38.186Z,13.48
2019-06-26T06:15:09.978Z,12.85
2019-06-26T06:17:38.772Z,12.78
2019-06-26T06:20:08.165Z,11.63
2019-06-26T06:22:37.104Z,12.45
2019-06-26T06:25:06.954Z,12.63
2019-06-26T06:27:35.835Z,12.33
2019-06-26T06:30:06.247Z,12.50
2019-06-26T06:32:35.069Z,12.75
2019-06-26T06:35:04.217Z,12.93
2019-06-26T06:37:32.954Z,12.47
2019-06-26T06:40:01.650Z,12.15
2019-06-26T06:42:30.344Z,12.00
2019-06-26T06:44:59.146Z,12.23
2019-06-26T06:47:27.861Z,12.53
2019-06-26T06:49:56.565Z,11.88
2019-06-26T06:52:25.202Z,12.28
2019-06-26T06:54:54.009Z,11.80
2019-06-26T06:57:22.964Z,11.95
2019-06-26T06:59:51.617Z,11.83
2019-06-26T07:02:20.507Z,11.73
2019-06-26T07:04:49.199Z,12.03
2019-06-26T07:07:17.854Z,11.63
2019-06-26T07:09:46.746Z,11.20
2019-06-26T07:12:15.512Z,11.68
2019-06-26T07:14:44.259Z,11.12
2019-06-26T07:17:20.723Z,10.98
2019-06-26T07:19:43.461Z,10.98
2019-06-26T07:22:12.525Z,10.48
2019-06-26T07:24:41.216Z,10.95
2019-06-26T07:27:10.050Z,11.48
2019-06-26T07:29:38.903Z,10.75
2019-06-26T07:32:07.679Z,10.10
2019-06-26T07:34:36.499Z,10.25
2019-06-26T07:37:05.280Z,10.93
2019-06-26T07:39:34.048Z,10.00
2019-06-26T07:42:02.782Z,11.08
2019-06-26T07:44:31.463Z,10.72
2019-06-26T07:47:00.518Z,9.85
2019-06-26T07:49:29.503Z,10.82
2019-06-26T07:51:58.134Z,9.35
2019-06-26T07:54:26.861Z,9.83
2019-06-26T07:56:55.531Z,9.65
2019-06-26T07:59:24.227Z,10.30
2019-06-26T08:01:52.923Z,10.85
2019-06-26T08:04:21.617Z,10.20
2019-06-26T08:06:50.454Z,10.53
2019-06-26T08:09:19.316Z,10.58
2019-06-26T08:11:48.002Z,9.65
2019-06-26T08:14:16.824Z,10.32
2019-06-26T08:16:45.661Z,10.60
2019-06-26T08:19:14.457Z,9.95
2019-06-26T08:21:46.510Z,9.38
2019-06-26T08:24:13.559Z,9.30
2019-06-26T08:26:42.262Z,9.80
2019-06-26T08:29:11.066Z,9.75
2019-06-26T08:31:39.787Z,9.50
2019-06-26T08:34:08.497Z,9.40
2019-06-26T08:36:37.235Z,9.18
2019-06-26T08:39:07.278Z,9.35
2019-06-26T08:41:36.067Z,8.68
2019-06-26T08:44:04.861Z,9.10
2019-06-26T08:46:33.719Z,8.83
2019-06-26T08:49:02.548Z,9.23
2019-06-26T08:51:31.355Z,9.20
2019-06-26T08:54:00.216Z,9.08
2019-06-26T08:56:29.094Z,8.90
2019-06-26T08:58:57.827Z,9.40
2019-06-26T09:01:26.729Z,8.85
2019-06-26T09:03:55.597Z,8.83
2019-06-26T09:06:24.571Z,9.13
2019-06-26T09:08:53.533Z,8.98
2019-06-26T09:11:22.332Z,9.60
2019-06-26T09:13:51.018Z,9.03
2019-06-26T09:16:19.879Z,9.38
2019-06-26T09:18:48.720Z,8.58
2019-06-26T09:21:17.650Z,9.00
2019-06-26T09:23:46.539Z,8.93
2019-06-26T09:26:15.454Z,9.20
2019-06-26T09:28:44.304Z,8.40
2019-06-26T09:31:13.143Z,8.65
2019-06-26T09:33:42.010Z,9.40
2019-06-26T09:36:10.858Z,9.58
2019-06-26T09:38:39.823Z,10.03
2019-06-26T09:41:08.850Z,8.28
2019-06-26T09:43:37.765Z,8.75
2019-06-26T09:46:06.792Z,8.63
2019-06-26T09:48:51.437Z,8.38
2019-06-26T09:51:06.226Z,8.40
2019-06-26T09:53:46.729Z,8.48
2019-06-26T09:56:05.641Z,9.03
2019-06-26T09:58:34.548Z,8.00
2019-06-26T10:01:03.526Z,8.65
2019-06-26T10:03:32.270Z,7.67
2019-06-26T10:06:01.088Z,8.10
2019-06-26T10:08:30.076Z,8.48
2019-06-26T10:10:58.898Z,9.73
2019-06-26T10:13:27.844Z,9.88
2019-06-26T10:16:00.327Z,9.88
2019-06-26T10:18:27.276Z,10.08
2019-06-26T10:20:56.477Z,8.78
2019-06-26T10:23:25.448Z,9.18
2019-06-26T10:25:54.424Z,8.95
2019-06-26T10:28:23.319Z,9.20
2019-06-26T10:30:52.279Z,8.95
2019-06-26T10:33:21.250Z,9.43
2019-06-26T10:35:50.136Z,8.53
2019-06-26T10:38:19.124Z,9.15
2019-06-26T10:40:48.012Z,8.68
2019-06-26T10:43:16.953Z,8.40
2019-06-26T10:45:46.014Z,8.78
2019-06-26T10:48:15.006Z,8.30
2019-06-26T10:50:51.954Z,8.13
2019-06-26T10:53:14.593Z,7.70
2019-06-26T10:55:43.500Z,7.33
2019-06-26T10:58:12.349Z,7.53
2019-06-26T11:00:41.339Z,7.60
2019-06-26T11:03:10.229Z,7.85
2019-06-26T11:05:39.013Z,6.92
2019-06-26T11:08:07.837Z,7.80
2019-06-26T11:10:36.731Z,7.92
2019-06-26T11:13:05.745Z,7.75
2019-06-26T11:15:35.245Z,7.85
2019-06-26T11:18:04.052Z,7.92
2019-06-26T11:20:33.031Z,7.97
2019-06-26T11:23:01.889Z,8.25
2019-06-26T11:25:30.703Z,7.53
2019-06-26T11:27:59.633Z,8.68
2019-06-26T11:30:28.697Z,6.60
2019-06-26T11:32:57.549Z,6.70
2019-06-26T11:35:26.382Z,6.83
2019-06-26T11:37:55.337Z,7.08
2019-06-26T11:40:24.202Z,6.90
2019-06-26T11:42:53.140Z,6.70
2019-06-26T11:45:22.325Z,6.83
2019-06-26T11:47:51.183Z,6.45
2019-06-26T11:50:20.793Z,6.95
2019-06-26T11:52:49.701Z,6.65
2019-06-26T11:55:20.163Z,6.65
2019-06-26T11:57:49.071Z,7.50
2019-06-26T12:00:20.685Z,7.42
2019-06-26T12:02:49.527Z,6.83
2019-06-26T12:05:19.068Z,7.05
2019-06-26T12:07:47.938Z,7.10
2019-06-26T12:10:17.057Z,7.08
2019-06-26T12:12:45.887Z,6.95
2019-06-26T12:15:16.448Z,6.47
2019-06-26T12:17:45.204Z,6.67
2019-06-26T12:20:19.107Z,7.00
2019-06-26T12:22:45.076Z,6.58
2019-06-26T12:25:14.401Z,7.10
2019-06-26T12:27:43.290Z,7.53
2019-06-26T12:30:12.244Z,7.15
2019-06-26T12:32:42.584Z,6.78
2019-06-26T12:35:12.357Z,7.22
2019-06-26T12:37:41.307Z,6.95
2019-06-26T12:40:10.262Z,6.92
2019-06-26T12:42:39.137Z,6.80
2019-06-26T12:45:11.295Z,7.45
2019-06-26T12:47:40.055Z,7.05
2019-06-26T12:50:10.885Z,7.47
2019-06-26T12:52:39.726Z,7.35
2019-06-26T12:55:08.542Z,7.78
2019-06-26T12:57:37.320Z,7.47
2019-06-26T13:00:08.453Z,7.12
2019-06-26T13:02:37.241Z,6.97
2019-06-26T13:05:07.010Z,7.90
2019-06-26T13:07:35.851Z,7.85
2019-06-26T13:10:07.670Z,7.78
2019-06-26T13:12:37.458Z,7.47
2019-06-26T13:15:09.586Z,8.65
2019-06-26T13:17:38.358Z,8.45
2019-06-26T13:20:10.329Z,8.63
2019-06-26T13:22:39.551Z,8.28
2019-06-26T13:25:09.657Z,8.43
2019-06-26T13:27:38.602Z,8.70
2019-06-26T13:30:08.218Z,8.20
2019-06-26T13:32:37.028Z,8.68
2019-06-26T13:35:07.673Z,8.23
2019-06-26T13:37:36.476Z,8.40
2019-06-26T13:40:09.168Z,8.10
2019-06-26T13:42:38.367Z,8.03
2019-06-26T13:45:07.966Z,8.55
2019-06-26T13:47:36.792Z,8.55
2019-06-26T13:50:09.042Z,8.13
2019-06-26T13:52:37.910Z,8.70
2019-06-26T13:55:08.158Z,9.20
2019-06-26T13:57:36.967Z,9.23
2019-06-26T14:00:07.514Z,8.65
2019-06-26T14:02:36.308Z,8.78
2019-06-26T14:05:07.249Z,8.85
2019-06-26T14:07:36.273Z,9.18
2019-06-26T14:10:08.166Z,8.63
2019-06-26T14:12:37.134Z,9.28
2019-06-26T14:15:07.466Z,9.60
2019-06-26T14:17:36.367Z,9.48
2019-06-26T14:20:10.652Z,9.13
2019-06-26T14:22:39.557Z,9.78
2019-06-26T14:25:08.919Z,10.28
2019-06-26T14:27:37.843Z,9.50
2019-06-26T14:30:10.357Z,9.65
2019-06-26T14:32:39.254Z,9.83
2019-06-26T14:35:08.570Z,9.20
2019-06-26T14:37:37.353Z,9.38
2019-06-26T14:40:08.639Z,10.03
2019-06-26T14:42:37.719Z,9.48
2019-06-26T14:45:10.429Z,9.55
2019-06-26T14:47:39.309Z,9.80
2019-06-26T14:50:08.108Z,9.20
2019-06-26T14:52:36.968Z,9.70
2019-06-26T14:55:09.157Z,10.00
2019-06-26T14:57:38.100Z,9.68
2019-06-26T15:00:08.843Z,9.68
2019-06-26T15:02:37.715Z,9.33
2019-06-26T15:05:07.945Z,9.43
2019-06-26T15:07:36.799Z,9.63
2019-06-26T15:10:07.628Z,10.55
2019-06-26T15:12:36.461Z,10.30
2019-06-26T15:15:06.407Z,10.03
2019-06-26T15:17:35.183Z,10.63
2019-06-26T15:20:05.213Z,10.45
2019-06-26T15:22:34.159Z,10.48
2019-06-26T15:25:03.268Z,10.10
2019-06-26T15:27:32.084Z,10.72
2019-06-26T15:30:00.870Z,10.32
2019-06-26T15:32:29.677Z,10.10
2019-06-26T15:34:58.532Z,10.63
2019-06-26T15:37:27.599Z,10.55
2019-06-26T15:39:56.783Z,10.05
2019-06-26T15:42:25.458Z,10.38
2019-06-26T15:44:54.140Z,10.80
2019-06-26T15:47:22.918Z,10.98
2019-06-26T15:49:51.710Z,11.25
2019-06-26T15:52:20.585Z,10.32
2019-06-26T15:54:49.379Z,11.15
2019-06-26T15:57:18.002Z,10.90
2019-06-26T15:59:46.828Z,10.25
2019-06-26T16:02:15.547Z,10.28
2019-06-26T16:04:44.389Z,9.90
2019-06-26T16:07:13.096Z,11.12
2019-06-26T16:09:41.900Z,10.53
2019-06-26T16:12:10.657Z,11.22
2019-06-26T16:14:39.427Z,10.68
2019-06-26T16:17:09.782Z,10.90
2019-06-26T16:19:38.406Z,10.13
2019-06-26T16:22:07.229Z,9.78
2019-06-26T16:24:35.870Z,10.68
2019-06-26T16:27:04.688Z,10.08
2019-06-26T16:29:33.388Z,10.32
2019-06-26T16:32:02.127Z,10.23
2019-06-26T16:34:30.792Z,10.15
2019-06-26T16:36:59.480Z,10.18
2019-06-26T16:39:28.167Z,9.85
2019-06-26T16:41:56.834Z,9.63
2019-06-26T16:44:25.555Z,9.58
2019-06-26T16:46:54.226Z,9.40
2019-06-26T16:49:22.889Z,9.20
2019-06-26T16:51:51.719Z,9.53
2019-06-26T16:54:20.404Z,9.88
2019-06-26T16:56:49.041Z,9.93
2019-06-26T16:59:17.808Z,9.15
2019-06-26T17:01:46.445Z,9.05
2019-06-26T17:04:15.114Z,10.60
2019-06-26T17:06:43.826Z,10.20
2019-06-26T17:09:12.481Z,9.70
2019-06-26T17:11:41.139Z,9.75
2019-06-26T17:14:09.893Z,9.73
2019-06-26T17:16:38.578Z,9.98
2019-06-26T17:19:07.321Z,9.98
2019-06-26T17:21:36.031Z,9.40
2019-06-26T17:24:04.828Z,9.25
2019-06-26T17:26:33.499Z,9.13
2019-06-26T17:29:02.315Z,10.18
2019-06-26T17:31:31.150Z,10.25
2019-06-26T17:34:00.189Z,9.50
2019-06-26T17:36:29.092Z,9.25
2019-06-26T17:38:57.709Z,9.80
2019-06-26T17:41:26.516Z,9.13
2019-06-26T17:43:55.195Z,9.98
2019-06-26T17:46:23.953Z,10.18
2019-06-26T17:48:52.679Z,10.05
2019-06-26T17:51:21.535Z,10.25
2019-06-26T17:53:50.220Z,9.83
2019-06-26T17:56:18.907Z,9.70
2019-06-26T17:58:47.703Z,9.85
2019-06-26T18:01:16.445Z,9.55
2019-06-26T18:03:45.195Z,10.58
2019-06-26T18:06:13.885Z,9.80
2019-06-26T18:08:42.643Z,10.32
2019-06-26T18:11:11.352Z,10.10
2019-06-26T18:13:40.157Z,9.15
2019-06-26T18:16:08.826Z,11.03
2019-06-26T18:18:37.565Z,9.68
2019-06-26T18:21:06.281Z,9.95
2019-06-26T18:23:38.466Z,9.25
2019-06-26T18:26:13.229Z,9.60
2019-06-26T18:28:35.629Z,10.05
2019-06-26T18:31:04.418Z,9.93
2019-06-26T18:33:33.143Z,9.98
2019-06-26T18:36:01.881Z,9.58
2019-06-26T18:38:30.662Z,9.50
2019-06-26T18:40:59.360Z,9.90
2019-06-26T18:43:28.110Z,9.88
2019-06-26T18:45:56.917Z,9.60
2019-06-26T18:48:25.562Z,10.15
2019-06-26T18:50:54.275Z,9.90
2019-06-26T18:53:23.044Z,10.28
2019-06-26T18:55:51.740Z,10.30
2019-06-26T18:58:20.498Z,10.48
2019-06-26T19:00:49.133Z,10.35
2019-06-26T19:03:17.875Z,10.72
2019-06-26T19:05:46.616Z,10.80
2019-06-26T19:08:15.532Z,10.58
2019-06-26T19:10:44.278Z,10.63
2019-06-26T19:13:13.097Z,10.48
2019-06-26T19:15:41.762Z,10.45
2019-06-26T19:18:10.493Z,10.85
2019-06-26T19:20:39.276Z,11.20
2019-06-26T19:23:07.939Z,10.58
2019-06-26T19:25:36.613Z,11.30
2019-06-26T19:28:05.462Z,10.90
2019-06-26T19:30:34.173Z,11.28
2019-06-26T19:33:02.880Z,11.12
2019-06-26T19:35:31.661Z,11.00
2019-06-26T19:38:00.369Z,11.15
2019-06-26T19:40:29.154Z,11.15
2019-06-26T19:42:57.849Z,11.15
2019-06-26T19:45:26.542Z,10.82
2019-06-26T19:47:55.206Z,11.10
2019-06-26T19:50:23.920Z,11.25
2019-06-26T19:52:52.572Z,11.00
2019-06-26T19:55:21.284Z,11.78
2019-06-26T19:57:50.245Z,11.78
2019-06-26T20:00:19.065Z,11.88
2019-06-26T20:02:47.790Z,11.20
2019-06-26T20:05:16.502Z,11.43
2019-06-26T20:07:45.189Z,12.05
2019-06-26T20:10:15.777Z,12.23
2019-06-26T20:12:44.504Z,11.35
2019-06-26T20:15:13.401Z,11.12
2019-06-26T20:17:42.041Z,11.78
2019-06-26T20:20:11.030Z,12.03
2019-06-26T20:22:39.802Z,11.85
2019-06-26T20:25:09.522Z,12.33
2019-06-26T20:27:38.409Z,11.85
2019-06-26T20:30:09.848Z,11.25
2019-06-26T20:32:38.404Z,11.45
2019-06-26T20:35:07.842Z,12.23
2019-06-26T20:37:36.818Z,11.83
2019-06-26T20:40:07.617Z,11.80
2019-06-26T20:42:36.458Z,12.45
2019-06-26T20:45:06.273Z,11.45
2019-06-26T20:47:35.017Z,12.30
2019-06-26T20:50:05.166Z,12.53
2019-06-26T20:52:33.838Z,12.43
2019-06-26T20:55:02.918Z,11.83
2019-06-26T20:57:31.799Z,12.33
2019-06-26T21:00:00.616Z,12.50
2019-06-26T21:02:29.296Z,11.95
2019-06-26T21:04:58.146Z,12.28
2019-06-26T21:07:26.763Z,11.90
2019-06-26T21:09:55.506Z,11.65
2019-06-26T21:12:24.274Z,12.03
2019-06-26T21:14:52.993Z,11.50
2019-06-26T21:17:24.811Z,11.88
2019-06-26T21:19:52.139Z,11.97
2019-06-26T21:22:20.785Z,11.53
2019-06-26T21:24:49.503Z,12.20
2019-06-26T21:27:18.416Z,11.45
2019-06-26T21:29:47.428Z,11.93
2019-06-26T21:32:16.143Z,12.25
2019-06-26T21:34:44.909Z,10.75
2019-06-26T21:37:13.543Z,11.08
2019-06-26T21:39:42.220Z,11.03
2019-06-26T21:42:10.986Z,11.63
2019-06-26T21:44:39.712Z,11.25
2019-06-26T21:47:08.387Z,11.08
2019-06-26T21:49:37.098Z,10.82
2019-06-26T21:52:05.812Z,11.35
2019-06-26T21:54:34.489Z,10.10
2019-06-26T21:57:03.165Z,10.28
2019-06-26T21:59:31.844Z,10.95
2019-06-26T22:02:00.715Z,10.88
2019-06-26T22:04:29.500Z,11.20
2019-06-26T22:06:58.175Z,10.85
2019-06-26T22:09:27.003Z,10.03
2019-06-26T22:11:55.751Z,10.00
2019-06-26T22:14:24.413Z,10.65
2019-06-26T22:16:53.238Z,10.35
2019-06-26T22:19:22.109Z,9.93
2019-06-26T22:21:50.836Z,10.15
2019-06-26T22:24:19.623Z,10.82
2019-06-26T22:26:48.300Z,9.40
2019-06-26T22:29:16.962Z,10.35
2019-06-26T22:31:45.698Z,9.50
2019-06-26T22:34:14.450Z,9.90
2019-06-26T22:36:51.344Z,9.00
2019-06-26T22:39:13.510Z,9.88
2019-06-26T22:41:42.270Z,9.88
2019-06-26T22:44:11.002Z,9.70
2019-06-26T22:46:39.698Z,9.75
2019-06-26T22:49:08.506Z,9.60
2019-06-26T22:51:37.295Z,9.65
2019-06-26T22:54:06.030Z,10.30
2019-06-26T22:56:34.860Z,9.98
2019-06-26T22:59:03.543Z,10.25
2019-06-26T23:01:32.191Z,9.58
2019-06-26T23:04:00.893Z,10.78
2019-06-26T23:06:29.533Z,10.40
2019-06-26T23:08:58.205Z,10.75
2019-06-26T23:11:26.966Z,10.40
2019-06-26T23:13:55.636Z,10.18
2019-06-26T23:16:24.353Z,10.78
2019-06-26T23:18:53.238Z,10.43
2019-06-26T23:21:22.064Z,10.23
2019-06-26T23:23:50.820Z,10.48
2019-06-26T23:26:24.082Z,10.45
2019-06-26T23:28:49.899Z,10.65
2019-06-26T23:31:18.583Z,10.55
2019-06-26T23:33:47.308Z,10.85
2019-06-26T23:36:15.958Z,10.20
2019-06-26T23:38:44.620Z,10.40
2019-06-26T23:41:13.377Z,10.60
2019-06-26T23:43:42.018Z,11.12
2019-06-26T23:46:10.714Z,10.15
2019-06-26T23:48:39.377Z,11.35
2019-06-26T23:51:08.067Z,11.50
2019-06-26T23:53:36.688Z,11.00
2019-06-26T23:56:05.407Z,11.33
2019-06-26T23:58:34.047Z,11.10
